Time;durP1;ratioP1;P1;durP2;ratioP2;P2;SDS_P1;SDS_P2;PMS_P1;PMS_P2;Temp;Humidity;BMP_temperature;BMP_pressure;BME280_temperature;BME280_humidity;BME280_pressure;Samples;Min_cycle;Max_cycle;Signal;HPM_P1;HPM_P2
2024/04/13 00:02:52;;;;;;;14.57;7.05;;;;;;;;;;10951097;26;20018;-76
2024/04/13 00:08:00;;;;;;;16.02;6.72;;;;;;;;;;10948485;26;20097;-76
2024/04/13 00:13:04;;;;;;;12.60;5.93;;;;;;;;;;10951041;26;20005;-76
2024/04/13 00:18:09;;;;;;;12.15;6.22;;;;;;;;;;10950020;26;20009;-76
2024/04/13 00:23:17;;;;;;;10.98;6.03;;;;;;;;;;10952503;26;20005;-77
2024/04/13 00:28:21;;;;;;;9.80;5.40;;;;;;;;;;10952304;26;20002;-76
2024/04/13 00:33:26;;;;;;;12.68;5.72;;;;;;;;;;10949187;27;20110;-74
2024/04/13 00:38:35;;;;;;;11.20;5.40;;;;;;;;;;10952846;27;20002;-77
2024/04/13 00:43:40;;;;;;;13.15;5.40;;;;;;;;;;10954817;26;20033;-76
2024/04/13 00:48:48;;;;;;;11.57;6.20;;;;;;;;;;10949928;26;20471;-76
2024/04/13 00:53:56;;;;;;;11.73;5.25;;;;;;;;;;10942919;26;20043;-76
2024/04/13 00:59:02;;;;;;;11.48;5.47;;;;;;;;;;10953064;26;20056;-75
2024/04/13 01:04:08;;;;;;;12.80;5.07;;;;;;;;;;10938074;26;20049;-76
2024/04/13 01:09:16;;;;;;;10.65;4.88;;;;;;;;;;10949338;26;20001;-75
2024/04/13 01:14:21;;;;;;;8.70;5.00;;;;;;;;;;10950740;27;20405;-75
2024/04/13 01:19:25;;;;;;;11.68;5.28;;;;;;;;;;10950637;27;20036;-74
2024/04/13 01:24:33;;;;;;;13.30;5.68;;;;;;;;;;10947023;27;20025;-75
2024/04/13 01:29:38;;;;;;;12.07;5.43;;;;;;;;;;10944225;26;20477;-75
2024/04/13 01:34:43;;;;;;;12.43;5.57;;;;;;;;;;10947567;27;20022;-75
2024/04/13 01:39:50;;;;;;;9.88;5.25;;;;;;;;;;10948417;26;20469;-75
2024/04/13 01:44:55;;;;;;;10.32;5.28;;;;;;;;;;10947987;27;20358;-74
2024/04/13 01:50:00;;;;;;;18.52;5.68;;;;;;;;;;10946015;27;20471;-75
2024/04/13 01:55:07;;;;;;;8.70;4.70;;;;;;;;;;10951842;27;20021;-74
2024/04/13 02:00:14;;;;;;;8.05;4.57;;;;;;;;;;10944941;27;20005;-75
2024/04/13 02:05:19;;;;;;;7.75;4.45;;;;;;;;;;10947771;26;20014;-75
2024/04/13 02:10:26;;;;;;;10.27;4.53;;;;;;;;;;10955131;26;20009;-74
2024/04/13 02:15:31;;;;;;;14.38;5.15;;;;;;;;;;10958212;27;20020;-74
2024/04/13 02:20:36;;;;;;;7.85;4.15;;;;;;;;;;10958095;26;20013;-74
2024/04/13 02:25:44;;;;;;;5.88;2.92;;;;;;;;;;10948526;26;20337;-74
2024/04/13 02:30:48;;;;;;;9.00;4.43;;;;;;;;;;10950532;26;20045;-75
2024/04/13 02:35:59;;;;;;;9.10;4.75;;;;;;;;;;10951043;26;20667;-76
2024/04/13 02:41:06;;;;;;;9.15;4.78;;;;;;;;;;10955606;27;20002;-77
2024/04/13 02:46:12;;;;;;;14.15;5.35;;;;;;;;;;10950211;26;20018;-78
2024/04/13 02:51:17;;;;;;;9.43;5.18;;;;;;;;;;10930330;27;20091;-76
2024/04/13 02:56:24;;;;;;;12.13;5.13;;;;;;;;;;10951546;27;20006;-76
2024/04/13 03:01:30;;;;;;;11.75;4.85;;;;;;;;;;10951147;27;20024;-76
2024/04/13 03:06:34;;;;;;;14.75;5.25;;;;;;;;;;10970634;26;20005;-76
2024/04/13 03:11:42;;;;;;;12.10;5.15;;;;;;;;;;10949153;27;20462;-76
2024/04/13 03:16:47;;;;;;;9.38;5.15;;;;;;;;;;10953568;26;20016;-76
2024/04/13 03:21:51;;;;;;;9.68;4.90;;;;;;;;;;10955073;26;20021;-75
2024/04/13 03:26:59;;;;;;;10.05;5.07;;;;;;;;;;10943597;26;20064;-76
2024/04/13 03:32:05;;;;;;;10.65;5.35;;;;;;;;;;10949496;27;20024;-76
2024/04/13 03:37:10;;;;;;;12.18;5.72;;;;;;;;;;10948749;27;20515;-77
2024/04/13 03:42:20;;;;;;;10.25;4.97;;;;;;;;;;10955518;26;20005;-77
2024/04/13 03:47:25;;;;;;;9.52;4.53;;;;;;;;;;10951560;27;20021;-77
2024/04/13 03:52:41;;;;;;;11.70;5.78;;;;;;;;;;10952378;26;20636;-76
2024/04/13 03:57:48;;;;;;;14.13;5.55;;;;;;;;;;10954167;27;20014;-78
2024/04/13 04:02:52;;;;;;;12.60;5.90;;;;;;;;;;10945960;27;20021;-78
2024/04/13 04:07:57;;;;;;;10.82;4.78;;;;;;;;;;10951018;26;20015;-76
2024/04/13 04:13:05;;;;;;;9.18;4.75;;;;;;;;;;10951826;27;20016;-76
2024/04/13 04:18:10;;;;;;;9.60;5.15;;;;;;;;;;10953770;26;20014;-77
2024/04/13 04:23:16;;;;;;;10.40;5.13;;;;;;;;;;10941580;26;20012;-76
2024/04/13 04:28:23;;;;;;;9.82;5.28;;;;;;;;;;10947319;27;20006;-78
2024/04/13 04:33:28;;;;;;;10.32;4.95;;;;;;;;;;10941202;27;20007;-76
2024/04/13 04:38:35;;;;;;;10.85;5.18;;;;;;;;;;10944801;26;20539;-75
2024/04/13 04:43:42;;;;;;;11.05;5.45;;;;;;;;;;10923349;26;20001;-74
2024/04/13 04:48:49;;;;;;;9.13;5.30;;;;;;;;;;10957849;26;20029;-76
2024/04/13 04:53:53;;;;;;;9.20;5.35;;;;;;;;;;10945957;27;19998;-76
2024/04/13 04:59:01;;;;;;;9.95;5.20;;;;;;;;;;10947928;27;20009;-76
2024/04/13 05:04:07;;;;;;;11.35;4.78;;;;;;;;;;10951598;26;20100;-76
2024/04/13 05:09:13;;;;;;;11.38;4.25;;;;;;;;;;10944628;26;20002;-76
2024/04/13 05:14:21;;;;;;;9.05;4.72;;;;;;;;;;10948310;27;19998;-78
2024/04/13 05:19:25;;;;;;;8.32;4.50;;;;;;;;;;10952463;27;20016;-78
2024/04/13 05:24:30;;;;;;;6.07;3.85;;;;;;;;;;10951810;26;20041;-78
2024/04/13 05:29:39;;;;;;;6.68;3.95;;;;;;;;;;10918304;26;20009;-78
2024/04/13 05:34:44;;;;;;;10.45;3.90;;;;;;;;;;10954007;26;20006;-78
2024/04/13 05:39:49;;;;;;;7.40;4.38;;;;;;;;;;10949387;27;20010;-78
2024/04/13 05:44:56;;;;;;;12.73;4.20;;;;;;;;;;10953185;27;20013;-79
2024/04/13 05:50:02;;;;;;;9.38;3.70;;;;;;;;;;10954357;27;20016;-78
2024/04/13 05:55:08;;;;;;;11.80;4.03;;;;;;;;;;10961218;26;20017;-78
2024/04/13 06:00:16;;;;;;;7.80;3.83;;;;;;;;;;10952179;27;20092;-76
2024/04/13 06:05:20;;;;;;;5.07;3.03;;;;;;;;;;10952184;26;20129;-77
2024/04/13 06:10:41;;;;;;;2.42;1.98;;;;;;;;;;10954574;27;20107;-77
2024/04/13 06:15:55;;;;;;;8.48;3.53;;;;;;;;;;10996949;26;20454;-75
2024/04/13 06:21:00;;;;;;;6.40;3.83;;;;;;;;;;10992098;26;20011;-76
2024/04/13 06:26:05;;;;;;;6.15;3.50;;;;;;;;;;10978803;26;20072;-76
2024/04/13 06:31:12;;;;;;;6.78;3.55;;;;;;;;;;10970780;26;20101;-75
2024/04/13 06:36:16;;;;;;;6.50;3.45;;;;;;;;;;10978261;26;20671;-76
2024/04/13 06:41:21;;;;;;;5.85;2.80;;;;;;;;;;10984760;26;19998;-76
2024/04/13 06:46:28;;;;;;;9.63;3.70;;;;;;;;;;10969584;26;20005;-76
2024/04/13 06:51:33;;;;;;;6.97;3.72;;;;;;;;;;10979403;26;20029;-76
2024/04/13 06:56:38;;;;;;;8.20;3.60;;;;;;;;;;10966272;26;20006;-76
2024/04/13 07:01:45;;;;;;;7.43;3.95;;;;;;;;;;10974554;26;20010;-76
2024/04/13 07:06:49;;;;;;;4.82;3.03;;;;;;;;;;10982888;26;20006;-77
2024/04/13 07:11:54;;;;;;;7.20;3.70;;;;;;;;;;10981501;26;20032;-77
2024/04/13 07:17:01;;;;;;;7.40;3.40;;;;;;;;;;10969204;26;20005;-76
2024/04/13 07:22:06;;;;;;;5.82;3.75;;;;;;;;;;10979073;26;20812;-76
2024/04/13 07:27:10;;;;;;;5.60;3.08;;;;;;;;;;10972205;26;20021;-77
2024/04/13 07:32:18;;;;;;;5.93;3.67;;;;;;;;;;10966060;26;20002;-78
2024/04/13 07:37:24;;;;;;;5.68;3.50;;;;;;;;;;10964379;26;20072;-77
2024/04/13 07:42:29;;;;;;;5.65;3.58;;;;;;;;;;10962852;26;20014;-77
2024/04/13 07:47:41;;;;;;;7.53;3.50;;;;;;;;;;10962446;26;20333;-78
2024/04/13 07:52:45;;;;;;;9.02;4.15;;;;;;;;;;10972841;26;20121;-78
2024/04/13 07:57:52;;;;;;;5.03;3.75;;;;;;;;;;10934471;26;20005;-78
2024/04/13 08:03:07;;;;;;;5.90;3.75;;;;;;;;;;10957910;26;20368;-78
2024/04/13 08:08:12;;;;;;;8.30;3.72;;;;;;;;;;10966493;26;20019;-77
2024/04/13 08:13:17;;;;;;;7.50;3.67;;;;;;;;;;11001794;26;20134;-73
2024/04/13 08:18:29;;;;;;;6.85;4.03;;;;;;;;;;11048705;26;20024;-72
2024/04/13 08:29:18;;;;;;;9.55;5.93;;;;;;;;;;11048235;26;20004;-83
2024/04/13 08:34:27;;;;;;;7.05;4.65;;;;;;;;;;11062162;26;20709;-82
2024/04/13 08:39:35;;;;;;;8.40;5.35;;;;;;;;;;11056901;26;20630;-82
2024/04/13 08:44:41;;;;;;;11.63;4.57;;;;;;;;;;11054553;26;20128;-82
2024/04/13 08:49:49;;;;;;;6.25;4.82;;;;;;;;;;11045458;26;19997;-82
2024/04/13 08:54:53;;;;;;;8.98;5.25;;;;;;;;;;11066966;26;20444;-82
2024/04/13 09:00:00;;;;;;;8.10;5.15;;;;;;;;;;11059549;26;20016;-82
2024/04/13 09:05:08;;;;;;;8.68;5.63;;;;;;;;;;11057247;26;20004;-83
2024/04/13 09:10:16;;;;;;;6.43;5.37;;;;;;;;;;11063019;26;20458;-81
2024/04/13 09:15:22;;;;;;;5.53;5.00;;;;;;;;;;11056014;26;20021;-80
2024/04/13 09:20:30;;;;;;;7.10;5.38;;;;;;;;;;11058605;26;20018;-82
2024/04/13 09:25:34;;;;;;;12.98;5.22;;;;;;;;;;11048219;26;20417;-83
2024/04/13 09:30:40;;;;;;;5.88;5.18;;;;;;;;;;11052772;26;20001;-82
2024/04/13 09:35:59;;;;;;;6.70;4.55;;;;;;;;;;11042006;26;20005;-82
2024/04/13 09:41:04;;;;;;;9.02;5.43;;;;;;;;;;11058439;26;20019;-82
2024/04/13 09:46:08;;;;;;;11.23;5.63;;;;;;;;;;11058905;26;20028;-83
2024/04/13 09:51:17;;;;;;;6.88;4.75;;;;;;;;;;11053969;26;20115;-82
2024/04/13 09:56:22;;;;;;;8.45;5.07;;;;;;;;;;11023732;26;20065;-82
2024/04/13 10:01:29;;;;;;;9.10;5.72;;;;;;;;;;11011626;26;20001;-83
2024/04/13 10:06:40;;;;;;;9.13;5.30;;;;;;;;;;11052413;26;20141;-82
2024/04/13 10:11:52;;;;;;;6.57;5.10;;;;;;;;;;11025665;26;20005;-83
2024/04/13 10:17:01;;;;;;;7.25;4.75;;;;;;;;;;10968923;26;20038;-82
2024/04/13 10:22:11;;;;;;;7.00;5.35;;;;;;;;;;10975898;26;20013;-84
2024/04/13 10:27:37;;;;;;;8.88;4.82;;;;;;;;;;10947261;26;20024;-84
2024/04/13 10:32:46;;;;;;;9.57;5.38;;;;;;;;;;10988602;26;20021;-83
2024/04/13 10:37:55;;;;;;;7.63;5.30;;;;;;;;;;10992222;26;20025;-83
2024/04/13 10:43:11;;;;;;;5.93;4.93;;;;;;;;;;10992198;26;20023;-85
2024/04/13 10:48:15;;;;;;;5.15;4.65;;;;;;;;;;10987081;26;20037;-86
2024/04/13 10:53:25;;;;;;;5.28;4.45;;;;;;;;;;10991937;26;20089;-88
2024/04/13 10:58:30;;;;;;;5.65;3.97;;;;;;;;;;11000440;26;20002;-89
2024/04/13 11:03:36;;;;;;;6.10;3.83;;;;;;;;;;11000042;26;20016;-89
2024/04/13 11:08:44;;;;;;;4.80;3.60;;;;;;;;;;10993193;26;20638;-87
2024/04/13 11:13:52;;;;;;;5.38;3.80;;;;;;;;;;10981605;26;20037;-86
2024/04/13 11:19:00;;;;;;;;;;;;;;;;;;10980693;26;20021;-84
2024/04/13 11:24:09;;;;;;;6.93;3.83;;;;;;;;;;10972712;26;19934;-87
2024/04/13 11:29:14;;;;;;;4.60;3.63;;;;;;;;;;10982863;26;20095;-86
2024/04/13 11:34:19;;;;;;;9.13;3.72;;;;;;;;;;10971394;26;20006;-82
2024/04/13 11:39:28;;;;;;;5.05;3.33;;;;;;;;;;10959996;26;20104;-82
2024/04/13 11:44:33;;;;;;;7.45;3.40;;;;;;;;;;10963014;26;20009;-83
2024/04/13 11:49:40;;;;;;;3.78;3.20;;;;;;;;;;10965686;26;20029;-81
2024/04/13 11:54:48;;;;;;;8.15;3.30;;;;;;;;;;10930288;26;20529;-83
2024/04/13 11:59:54;;;;;;;5.20;3.38;;;;;;;;;;10966599;26;20026;-82
2024/04/13 12:05:03;;;;;;;4.78;3.13;;;;;;;;;;10973031;26;20025;-83
2024/04/13 12:10:13;;;;;;;4.00;2.70;;;;;;;;;;10963116;26;20049;-81
2024/04/13 12:15:18;;;;;;;3.90;2.67;;;;;;;;;;11045559;26;20345;-83
2024/04/13 12:20:24;;;;;;;5.18;2.83;;;;;;;;;;11054768;26;20012;-82
2024/04/13 12:25:33;;;;;;;4.07;2.22;;;;;;;;;;11070932;26;20043;-81
2024/04/13 12:30:39;;;;;;;5.88;2.38;;;;;;;;;;11054012;26;20023;-81
2024/04/13 12:35:44;;;;;;;3.42;2.17;;;;;;;;;;11046103;26;20017;-80
2024/04/13 12:40:51;;;;;;;4.72;2.80;;;;;;;;;;11038539;26;20001;-81
2024/04/13 12:45:56;;;;;;;3.63;2.90;;;;;;;;;;11048408;26;20449;-81
2024/04/13 12:51:00;;;;;;;3.95;2.55;;;;;;;;;;11048088;26;20001;-81
2024/04/13 12:56:08;;;;;;;4.43;2.40;;;;;;;;;;11049725;26;20524;-81
2024/04/13 13:01:12;;;;;;;3.28;2.60;;;;;;;;;;11042034;26;20043;-81
2024/04/13 13:06:18;;;;;;;2.92;2.08;;;;;;;;;;11030487;26;20013;-82
2024/04/13 13:11:25;;;;;;;4.68;2.10;;;;;;;;;;11034329;26;20049;-82
2024/04/13 13:16:29;;;;;;;3.53;2.00;;;;;;;;;;11034577;26;20111;-81
2024/04/13 13:21:34;;;;;;;4.75;2.17;;;;;;;;;;11032166;26;20025;-82
2024/04/13 13:26:41;;;;;;;5.30;1.95;;;;;;;;;;11048902;26;20044;-80
2024/04/13 13:31:45;;;;;;;2.00;1.70;;;;;;;;;;11057827;26;20222;-80
2024/04/13 13:36:50;;;;;;;3.08;1.80;;;;;;;;;;11040895;26;20633;-81
2024/04/13 13:41:57;;;;;;;4.72;2.00;;;;;;;;;;11005155;26;20044;-81
2024/04/13 13:47:06;;;;;;;2.97;1.80;;;;;;;;;;11043289;26;20338;-80
2024/04/13 13:52:10;;;;;;;4.75;1.70;;;;;;;;;;11030704;26;20024;-81
2024/04/13 13:57:17;;;;;;;3.47;1.70;;;;;;;;;;11040631;26;20350;-82
2024/04/13 14:02:22;;;;;;;3.70;1.88;;;;;;;;;;11050251;26;20016;-85
2024/04/13 14:07:26;;;;;;;3.88;1.60;;;;;;;;;;11051651;26;20009;-82
2024/04/13 14:12:33;;;;;;;2.67;1.58;;;;;;;;;;11050487;26;20013;-82
2024/04/13 14:17:37;;;;;;;2.70;1.50;;;;;;;;;;11032172;26;20371;-82
2024/04/13 14:22:42;;;;;;;2.95;1.70;;;;;;;;;;11032856;26;20473;-82
2024/04/13 14:27:50;;;;;;;2.97;1.70;;;;;;;;;;11033541;26;20378;-82
2024/04/13 14:32:56;;;;;;;3.47;1.70;;;;;;;;;;11039786;26;20001;-82
2024/04/13 14:38:01;;;;;;;5.20;1.80;;;;;;;;;;11037756;26;20122;-82
2024/04/13 14:43:08;;;;;;;5.18;1.80;;;;;;;;;;11042051;26;20033;-81
2024/04/13 14:48:13;;;;;;;3.95;1.75;;;;;;;;;;11039167;26;20025;-81
2024/04/13 14:53:18;;;;;;;3.17;1.90;;;;;;;;;;11025170;26;20001;-82
2024/04/13 14:58:25;;;;;;;4.05;1.90;;;;;;;;;;11035723;26;20032;-81
2024/04/13 15:03:30;;;;;;;5.38;2.05;;;;;;;;;;11010130;26;20019;-81
2024/04/13 15:08:35;;;;;;;2.85;1.70;;;;;;;;;;11045568;26;20012;-81
2024/04/13 15:13:43;;;;;;;8.80;2.70;;;;;;;;;;11042490;26;20008;-81
2024/04/13 15:18:47;;;;;;;4.70;2.20;;;;;;;;;;11056278;26;20458;-81
2024/04/13 15:23:53;;;;;;;4.78;2.30;;;;;;;;;;11048185;26;20015;-81
2024/04/13 15:29:00;;;;;;;5.35;1.83;;;;;;;;;;11053834;26;20028;-82
2024/04/13 15:34:05;;;;;;;5.88;2.08;;;;;;;;;;11049672;26;20016;-82
2024/04/13 15:39:10;;;;;;;5.40;2.10;;;;;;;;;;11045603;26;20023;-81
2024/04/13 15:44:20;;;;;;;6.00;2.17;;;;;;;;;;11046512;26;20185;-82
2024/04/13 15:49:24;;;;;;;3.15;2.00;;;;;;;;;;11043598;26;20016;-82
2024/04/13 15:54:29;;;;;;;3.90;2.20;;;;;;;;;;11046610;26;20016;-81
2024/04/13 15:59:37;;;;;;;5.00;2.10;;;;;;;;;;11049340;26;20115;-82
2024/04/13 16:04:42;;;;;;;3.78;2.10;;;;;;;;;;11053074;26;20008;-81
2024/04/13 16:09:46;;;;;;;3.42;1.90;;;;;;;;;;11052142;26;20010;-81
2024/04/13 16:14:53;;;;;;;4.53;2.10;;;;;;;;;;11056023;26;20012;-81
2024/04/13 16:19:57;;;;;;;5.10;2.60;;;;;;;;;;11055699;26;20074;-81
2024/04/13 16:25:02;;;;;;;4.35;2.08;;;;;;;;;;11042641;26;20126;-81
2024/04/13 16:30:10;;;;;;;4.15;2.25;;;;;;;;;;11008683;26;20043;-80
2024/04/13 16:35:14;;;;;;;5.90;2.35;;;;;;;;;;11042068;26;20015;-82
2024/04/13 16:40:19;;;;;;;5.18;2.10;;;;;;;;;;11002075;26;20123;-81
2024/04/13 16:45:26;;;;;;;5.53;2.10;;;;;;;;;;11038656;26;20085;-81
2024/04/13 16:50:31;;;;;;;4.55;2.47;;;;;;;;;;11039172;26;20036;-82
2024/04/13 16:55:35;;;;;;;6.55;3.65;;;;;;;;;;11043892;26;20059;-82
2024/04/13 17:00:42;;;;;;;3.75;2.35;;;;;;;;;;11046902;26;20448;-81
2024/04/13 17:05:47;;;;;;;8.52;3.00;;;;;;;;;;11047558;26;20521;-82
2024/04/13 17:10:52;;;;;;;8.32;3.25;;;;;;;;;;11044617;26;20012;-81
2024/04/13 17:15:59;;;;;;;4.82;2.90;;;;;;;;;;11065789;26;20001;-80
2024/04/13 17:21:04;;;;;;;8.23;3.63;;;;;;;;;;11055821;26;20005;-81
2024/04/13 17:26:09;;;;;;;10.32;5.10;;;;;;;;;;11063968;26;20122;-80
2024/04/13 17:31:16;;;;;;;7.65;3.38;;;;;;;;;;11068667;26;20385;-81
2024/04/13 17:36:21;;;;;;;5.78;3.38;;;;;;;;;;11063394;26;20178;-81
2024/04/13 17:41:26;;;;;;;8.75;3.65;;;;;;;;;;11065310;26;20043;-80
2024/04/13 17:46:34;;;;;;;11.07;4.00;;;;;;;;;;11028107;26;20125;-81
2024/04/13 17:51:39;;;;;;;8.05;3.78;;;;;;;;;;11072622;26;20005;-81
2024/04/13 17:56:44;;;;;;;10.43;4.53;;;;;;;;;;11072702;26;20078;-79
2024/04/13 18:01:52;;;;;;;10.63;4.20;;;;;;;;;;11075038;26;20093;-80
2024/04/13 18:06:56;;;;;;;10.88;4.90;;;;;;;;;;11062219;26;20004;-82
2024/04/13 18:12:01;;;;;;;11.90;4.82;;;;;;;;;;11066869;26;20085;-82
2024/04/13 18:17:08;;;;;;;10.57;4.78;;;;;;;;;;11038077;26;20000;-80
2024/04/13 18:22:13;;;;;;;10.30;4.93;;;;;;;;;;11074707;26;20118;-81
2024/04/13 18:27:17;;;;;;;9.45;4.70;;;;;;;;;;11066018;26;20047;-82
2024/04/13 18:32:24;;;;;;;11.98;5.50;;;;;;;;;;11060402;26;20034;-81
2024/04/13 18:37:29;;;;;;;9.05;4.40;;;;;;;;;;11072523;26;20843;-81
2024/04/13 18:42:34;;;;;;;14.23;6.07;;;;;;;;;;11071204;26;20008;-80
2024/04/13 18:47:42;;;;;;;12.63;5.60;;;;;;;;;;11064344;26;20040;-81
2024/04/13 18:52:46;;;;;;;10.05;5.50;;;;;;;;;;11071905;26;20086;-81
2024/04/13 18:57:51;;;;;;;13.27;5.55;;;;;;;;;;11027374;26;20001;-81
2024/04/13 19:02:58;;;;;;;14.18;6.95;;;;;;;;;;11063965;26;20017;-82
2024/04/13 19:08:04;;;;;;;16.77;7.07;;;;;;;;;;11064475;26;20016;-81
2024/04/13 19:13:08;;;;;;;10.38;5.72;;;;;;;;;;11069546;26;20018;-81
2024/04/13 19:18:17;;;;;;;13.80;6.85;;;;;;;;;;11024153;26;20004;-82
2024/04/13 19:23:22;;;;;;;15.60;6.93;;;;;;;;;;11051181;26;20050;-81
2024/04/13 19:28:28;;;;;;;13.57;6.15;;;;;;;;;;11023171;26;20477;-80
2024/04/13 19:33:38;;;;;;;12.95;6.40;;;;;;;;;;11062080;26;20088;-80
2024/04/13 19:38:45;;;;;;;15.27;6.72;;;;;;;;;;11067154;26;20013;-81
2024/04/13 19:43:49;;;;;;;16.35;6.78;;;;;;;;;;11063686;26;20392;-82
2024/04/13 19:48:57;;;;;;;20.17;7.47;;;;;;;;;;11055989;26;20064;-82
2024/04/13 19:54:02;;;;;;;18.38;8.13;;;;;;;;;;11074245;26;20132;-81
2024/04/13 19:59:06;;;;;;;17.85;7.85;;;;;;;;;;11059149;26;20004;-83
2024/04/13 20:04:17;;;;;;;19.13;9.27;;;;;;;;;;11063202;26;20000;-82
2024/04/13 20:09:26;;;;;;;25.35;10.38;;;;;;;;;;11063162;26;20028;-77
2024/04/13 20:14:37;;;;;;;23.50;10.55;;;;;;;;;;11054016;26;20504;-76
2024/04/13 20:19:51;;;;;;;18.65;9.40;;;;;;;;;;11038599;26;20000;-76
2024/04/13 20:24:56;;;;;;;16.48;9.23;;;;;;;;;;11058779;26;20000;-80
2024/04/13 20:30:05;;;;;;;18.65;7.78;;;;;;;;;;11058176;26;20652;-80
2024/04/13 20:35:13;;;;;;;17.45;8.13;;;;;;;;;;11060911;26;20000;-77
2024/04/13 20:40:22;;;;;;;19.40;9.52;;;;;;;;;;11038429;26;20020;-77
2024/04/13 20:45:31;;;;;;;16.27;8.55;;;;;;;;;;11049262;26;20008;-79
2024/04/13 20:50:39;;;;;;;17.42;8.57;;;;;;;;;;11063959;26;20004;-79
2024/04/13 20:55:48;;;;;;;16.98;7.05;;;;;;;;;;11051713;26;20028;-79
2024/04/13 21:00:58;;;;;;;15.13;6.80;;;;;;;;;;11064533;26;20056;-78
2024/04/13 21:06:15;;;;;;;14.73;6.70;;;;;;;;;;11055038;26;20011;-79
2024/04/13 21:11:22;;;;;;;13.75;4.68;;;;;;;;;;11040265;26;20013;-77
2024/04/13 21:16:32;;;;;;;10.15;4.90;;;;;;;;;;11046250;26;20036;-78
2024/04/13 21:21:41;;;;;;;8.93;4.38;;;;;;;;;;11049723;26;20013;-78
2024/04/13 21:26:46;;;;;;;9.15;3.97;;;;;;;;;;11063559;26;20709;-79
2024/04/13 21:31:56;;;;;;;8.00;4.65;;;;;;;;;;11073624;26;20000;-80
2024/04/13 21:37:05;;;;;;;8.30;4.57;;;;;;;;;;11062344;26;20024;-78
2024/04/13 21:42:19;;;;;;;8.57;3.75;;;;;;;;;;11027297;26;20044;-79
2024/04/13 21:47:24;;;;;;;6.45;3.35;;;;;;;;;;11050085;26;20060;-75
2024/04/13 21:52:32;;;;;;;7.00;3.50;;;;;;;;;;11050982;26;20001;-78
2024/04/13 21:57:40;;;;;;;4.30;1.45;;;;;;;;;;11063594;26;20009;-76
2024/04/13 22:02:45;;;;;;;5.82;3.70;;;;;;;;;;11055210;26;20611;-77
2024/04/13 22:07:55;;;;;;;8.32;4.40;;;;;;;;;;11019392;26;20000;-77
2024/04/13 22:13:01;;;;;;;10.88;4.20;;;;;;;;;;11057518;26;20108;-77
2024/04/13 22:18:11;;;;;;;8.55;3.70;;;;;;;;;;11018552;26;20008;-77
2024/04/13 22:23:19;;;;;;;11.60;4.25;;;;;;;;;;11016269;26;20013;-77
2024/04/13 22:28:24;;;;;;;7.88;3.70;;;;;;;;;;11042242;26;20005;-76
2024/04/13 22:33:31;;;;;;;6.93;3.42;;;;;;;;;;11063160;26;20406;-77
2024/04/13 22:38:42;;;;;;;6.28;3.28;;;;;;;;;;11066812;26;20023;-77
2024/04/13 22:43:49;;;;;;;5.07;3.10;;;;;;;;;;11059560;26;21504;-76
2024/04/13 22:48:56;;;;;;;4.85;1.90;;;;;;;;;;11048522;26;20019;-77
2024/04/13 22:54:04;;;;;;;5.13;3.28;;;;;;;;;;11054802;26;20480;-77
2024/04/13 22:59:11;;;;;;;8.88;3.60;;;;;;;;;;11063173;26;20024;-76
2024/04/13 23:04:15;;;;;;;6.00;2.75;;;;;;;;;;11063809;26;20102;-76
2024/04/13 23:09:23;;;;;;;3.47;2.08;;;;;;;;;;11057265;26;20487;-76
2024/04/13 23:14:28;;;;;;;4.32;2.00;;;;;;;;;;11032183;26;20006;-78
2024/04/13 23:19:34;;;;;;;3.88;2.60;;;;;;;;;;11056564;26;20009;-75
2024/04/13 23:24:41;;;;;;;5.80;2.97;;;;;;;;;;11066015;26;20004;-75
2024/04/13 23:29:47;;;;;;;6.97;3.10;;;;;;;;;;11065938;26;20009;-77
2024/04/13 23:34:52;;;;;;;6.60;2.80;;;;;;;;;;11060894;26;20009;-73
2024/04/13 23:40:00;;;;;;;4.30;2.50;;;;;;;;;;11047672;26;20011;-75
2024/04/13 23:45:05;;;;;;;10.55;3.20;;;;;;;;;;11055407;26;20015;-76
2024/04/13 23:50:09;;;;;;;4.82;2.33;;;;;;;;;;11070375;26;20082;-76
2024/04/13 23:55:17;;;;;;;5.55;2.28;;;;;;;;;;11058141;26;20425;-76
